sensor_id;sensor_type;location;lat;lon;timestamp;P1;durP1;ratioP1;P2;durP2;ratioP2
13303;SDS011;6720;51.958;4.540;2023-06-14T00:00:18;7.03;;;4.57;;
13303;SDS011;6720;51.958;4.540;2023-06-14T00:02:43;6.60;;;4.40;;
13303;SDS011;6720;51.958;4.540;2023-06-14T00:05:09;5.07;;;4.20;;
13303;SDS011;6720;51.958;4.540;2023-06-14T00:07:35;6.13;;;4.40;;
13303;SDS011;6720;51.958;4.540;2023-06-14T00:10:00;6.20;;;4.40;;
13303;SDS011;6720;51.958;4.540;2023-06-14T00:12:25;6.47;;;4.60;;
13303;SDS011;6720;51.958;4.540;2023-06-14T00:14:51;7.63;;;4.53;;
13303;SDS011;6720;51.958;4.540;2023-06-14T00:17:16;6.23;;;4.50;;
13303;SDS011;6720;51.958;4.540;2023-06-14T00:19:42;5.13;;;4.07;;
13303;SDS011;6720;51.958;4.540;2023-06-14T00:22:07;5.13;;;4.63;;
13303;SDS011;6720;51.958;4.540;2023-06-14T00:24:32;6.67;;;4.80;;
13303;SDS011;6720;51.958;4.540;2023-06-14T00:26:57;6.17;;;4.67;;
13303;SDS011;6720;51.958;4.540;2023-06-14T00:29:23;6.93;;;4.83;;
13303;SDS011;6720;51.958;4.540;2023-06-14T00:31:48;5.27;;;4.73;;
13303;SDS011;6720;51.958;4.540;2023-06-14T00:34:13;5.80;;;5.00;;
13303;SDS011;6720;51.958;4.540;2023-06-14T00:36:38;6.30;;;4.33;;
13303;SDS011;6720;51.958;4.540;2023-06-14T00:39:04;5.47;;;4.90;;
13303;SDS011;6720;51.958;4.540;2023-06-14T00:41:29;6.03;;;5.00;;
13303;SDS011;6720;51.958;4.540;2023-06-14T00:43:54;6.20;;;4.90;;
13303;SDS011;6720;51.958;4.540;2023-06-14T00:46:21;5.20;;;4.70;;
13303;SDS011;6720;51.958;4.540;2023-06-14T00:48:47;6.03;;;4.60;;
13303;SDS011;6720;51.958;4.540;2023-06-14T00:51:12;5.80;;;4.63;;
13303;SDS011;6720;51.958;4.540;2023-06-14T00:53:37;6.97;;;4.60;;
13303;SDS011;6720;51.958;4.540;2023-06-14T00:56:04;7.93;;;4.97;;
13303;SDS011;6720;51.958;4.540;2023-06-14T00:58:30;4.83;;;4.37;;
13303;SDS011;6720;51.958;4.540;2023-06-14T01:00:56;6.87;;;4.53;;
13303;SDS011;6720;51.958;4.540;2023-06-14T01:03:21;5.50;;;4.70;;
13303;SDS011;6720;51.958;4.540;2023-06-14T01:05:48;6.07;;;5.20;;
13303;SDS011;6720;51.958;4.540;2023-06-14T01:13:12;6.83;;;4.57;;
13303;SDS011;6720;51.958;4.540;2023-06-14T01:15:40;8.40;;;5.20;;
13303;SDS011;6720;51.958;4.540;2023-06-14T01:18:08;7.93;;;4.80;;
13303;SDS011;6720;51.958;4.540;2023-06-14T01:20:33;8.40;;;5.27;;
13303;SDS011;6720;51.958;4.540;2023-06-14T01:23:03;6.60;;;5.00;;
13303;SDS011;6720;51.958;4.540;2023-06-14T01:25:28;6.03;;;5.07;;
13303;SDS011;6720;51.958;4.540;2023-06-14T01:27:55;5.77;;;4.87;;
13303;SDS011;6720;51.958;4.540;2023-06-14T01:30:22;6.53;;;5.10;;
13303;SDS011;6720;51.958;4.540;2023-06-14T01:32:50;5.73;;;5.10;;
13303;SDS011;6720;51.958;4.540;2023-06-14T01:35:16;8.00;;;4.93;;
13303;SDS011;6720;51.958;4.540;2023-06-14T01:37:42;7.80;;;4.67;;
13303;SDS011;6720;51.958;4.540;2023-06-14T01:40:07;8.53;;;5.47;;
13303;SDS011;6720;51.958;4.540;2023-06-14T01:42:34;7.37;;;5.17;;
13303;SDS011;6720;51.958;4.540;2023-06-14T01:45:01;6.83;;;4.90;;
13303;SDS011;6720;51.958;4.540;2023-06-14T01:47:26;6.40;;;5.40;;
13303;SDS011;6720;51.958;4.540;2023-06-14T01:49:52;8.80;;;5.13;;
13303;SDS011;6720;51.958;4.540;2023-06-14T01:52:17;6.27;;;4.70;;
13303;SDS011;6720;51.958;4.540;2023-06-14T01:54:44;6.83;;;5.27;;
13303;SDS011;6720;51.958;4.540;2023-06-14T01:57:09;8.60;;;4.80;;
13303;SDS011;6720;51.958;4.540;2023-06-14T01:59:35;6.60;;;4.80;;
13303;SDS011;6720;51.958;4.540;2023-06-14T02:02:02;5.40;;;4.63;;
13303;SDS011;6720;51.958;4.540;2023-06-14T02:04:27;5.63;;;4.60;;
13303;SDS011;6720;51.958;4.540;2023-06-14T02:06:52;5.13;;;4.63;;
13303;SDS011;6720;51.958;4.540;2023-06-14T02:09:17;6.03;;;4.50;;
13303;SDS011;6720;51.958;4.540;2023-06-14T02:11:43;7.60;;;4.80;;
13303;SDS011;6720;51.958;4.540;2023-06-14T02:14:08;7.80;;;4.53;;
13303;SDS011;6720;51.958;4.540;2023-06-14T02:16:36;8.50;;;4.87;;
13303;SDS011;6720;51.958;4.540;2023-06-14T02:19:02;7.97;;;5.13;;
13303;SDS011;6720;51.958;4.540;2023-06-14T02:21:27;7.93;;;4.77;;
13303;SDS011;6720;51.958;4.540;2023-06-14T02:23:52;7.10;;;5.00;;
13303;SDS011;6720;51.958;4.540;2023-06-14T02:26:18;7.97;;;4.60;;
13303;SDS011;6720;51.958;4.540;2023-06-14T02:28:43;6.20;;;4.80;;
13303;SDS011;6720;51.958;4.540;2023-06-14T02:31:08;6.93;;;4.57;;
13303;SDS011;6720;51.958;4.540;2023-06-14T02:33:33;7.40;;;4.80;;
13303;SDS011;6720;51.958;4.540;2023-06-14T02:35:59;6.83;;;4.50;;
13303;SDS011;6720;51.958;4.540;2023-06-14T02:38:24;5.00;;;4.50;;
13303;SDS011;6720;51.958;4.540;2023-06-14T02:40:49;6.60;;;4.80;;
13303;SDS011;6720;51.958;4.540;2023-06-14T02:43:14;6.47;;;5.03;;
13303;SDS011;6720;51.958;4.540;2023-06-14T02:45:42;5.20;;;4.70;;
13303;SDS011;6720;51.958;4.540;2023-06-14T02:48:07;7.27;;;4.63;;
13303;SDS011;6720;51.958;4.540;2023-06-14T02:50:32;6.70;;;4.53;;
13303;SDS011;6720;51.958;4.540;2023-06-14T02:52:58;6.67;;;4.83;;
13303;SDS011;6720;51.958;4.540;2023-06-14T02:55:23;8.90;;;4.90;;
13303;SDS011;6720;51.958;4.540;2023-06-14T02:57:48;8.00;;;5.10;;
13303;SDS011;6720;51.958;4.540;2023-06-14T03:00:14;8.70;;;5.50;;
13303;SDS011;6720;51.958;4.540;2023-06-14T03:02:39;10.27;;;5.13;;
13303;SDS011;6720;51.958;4.540;2023-06-14T03:05:05;8.57;;;5.40;;
13303;SDS011;6720;51.958;4.540;2023-06-14T03:07:32;7.23;;;5.20;;
13303;SDS011;6720;51.958;4.540;2023-06-14T03:09:57;7.27;;;5.83;;
13303;SDS011;6720;51.958;4.540;2023-06-14T03:12:23;8.77;;;5.60;;
13303;SDS011;6720;51.958;4.540;2023-06-14T03:14:48;6.03;;;5.27;;
13303;SDS011;6720;51.958;4.540;2023-06-14T03:17:15;8.20;;;5.33;;
13303;SDS011;6720;51.958;4.540;2023-06-14T03:19:42;7.27;;;5.57;;
13303;SDS011;6720;51.958;4.540;2023-06-14T03:22:07;7.67;;;5.17;;
13303;SDS011;6720;51.958;4.540;2023-06-14T03:24:33;8.63;;;5.40;;
13303;SDS011;6720;51.958;4.540;2023-06-14T03:27:01;9.80;;;5.87;;
13303;SDS011;6720;51.958;4.540;2023-06-14T03:29:27;7.47;;;5.77;;
13303;SDS011;6720;51.958;4.540;2023-06-14T03:31:59;6.70;;;5.27;;
13303;SDS011;6720;51.958;4.540;2023-06-14T03:34:24;9.07;;;5.50;;
13303;SDS011;6720;51.958;4.540;2023-06-14T03:36:50;7.00;;;5.67;;
13303;SDS011;6720;51.958;4.540;2023-06-14T03:39:15;6.27;;;5.67;;
13303;SDS011;6720;51.958;4.540;2023-06-14T03:41:40;11.67;;;5.77;;
13303;SDS011;6720;51.958;4.540;2023-06-14T03:44:05;6.60;;;5.57;;
13303;SDS011;6720;51.958;4.540;2023-06-14T03:46:46;8.07;;;6.00;;
13303;SDS011;6720;51.958;4.540;2023-06-14T03:49:33;7.27;;;5.33;;
13303;SDS011;6720;51.958;4.540;2023-06-14T03:52:21;8.27;;;6.00;;
13303;SDS011;6720;51.958;4.540;2023-06-14T03:55:06;7.80;;;5.67;;
13303;SDS011;6720;51.958;4.540;2023-06-14T03:57:54;7.90;;;5.37;;
13303;SDS011;6720;51.958;4.540;2023-06-14T04:00:42;7.20;;;6.00;;
13303;SDS011;6720;51.958;4.540;2023-06-14T04:03:29;10.23;;;5.47;;
13303;SDS011;6720;51.958;4.540;2023-06-14T04:06:03;8.73;;;5.97;;
13303;SDS011;6720;51.958;4.540;2023-06-14T04:10:57;9.23;;;5.80;;
13303;SDS011;6720;51.958;4.540;2023-06-14T04:13:22;8.87;;;5.37;;
13303;SDS011;6720;51.958;4.540;2023-06-14T04:15:47;6.70;;;5.17;;
13303;SDS011;6720;51.958;4.540;2023-06-14T04:18:13;7.20;;;5.27;;
13303;SDS011;6720;51.958;4.540;2023-06-14T04:23:22;12.63;;;5.63;;
13303;SDS011;6720;51.958;4.540;2023-06-14T04:25:48;7.47;;;5.07;;
13303;SDS011;6720;51.958;4.540;2023-06-14T04:28:14;8.33;;;5.83;;
13303;SDS011;6720;51.958;4.540;2023-06-14T04:30:41;6.57;;;5.60;;
13303;SDS011;6720;51.958;4.540;2023-06-14T04:33:06;11.33;;;5.43;;
13303;SDS011;6720;51.958;4.540;2023-06-14T04:35:31;7.60;;;4.73;;
13303;SDS011;6720;51.958;4.540;2023-06-14T04:38:00;8.37;;;5.70;;
13303;SDS011;6720;51.958;4.540;2023-06-14T04:40:29;6.60;;;5.40;;
13303;SDS011;6720;51.958;4.540;2023-06-14T04:42:54;5.53;;;4.70;;
13303;SDS011;6720;51.958;4.540;2023-06-14T04:45:20;6.73;;;5.27;;
13303;SDS011;6720;51.958;4.540;2023-06-14T04:47:46;10.13;;;4.50;;
13303;SDS011;6720;51.958;4.540;2023-06-14T04:50:12;6.20;;;4.77;;
13303;SDS011;6720;51.958;4.540;2023-06-14T04:52:38;6.50;;;5.33;;
13303;SDS011;6720;51.958;4.540;2023-06-14T04:55:03;8.57;;;5.13;;
13303;SDS011;6720;51.958;4.540;2023-06-14T04:57:28;7.10;;;5.13;;
13303;SDS011;6720;51.958;4.540;2023-06-14T04:59:54;6.50;;;4.73;;
13303;SDS011;6720;51.958;4.540;2023-06-14T05:02:20;7.87;;;4.83;;
13303;SDS011;6720;51.958;4.540;2023-06-14T05:04:46;8.77;;;4.67;;
13303;SDS011;6720;51.958;4.540;2023-06-14T05:07:12;7.33;;;4.50;;
13303;SDS011;6720;51.958;4.540;2023-06-14T05:09:39;7.13;;;4.97;;
13303;SDS011;6720;51.958;4.540;2023-06-14T05:12:04;6.97;;;4.53;;
13303;SDS011;6720;51.958;4.540;2023-06-14T05:14:32;9.00;;;5.33;;
13303;SDS011;6720;51.958;4.540;2023-06-14T05:16:58;8.80;;;5.03;;
13303;SDS011;6720;51.958;4.540;2023-06-14T05:19:23;16.17;;;14.43;;
13303;SDS011;6720;51.958;4.540;2023-06-14T05:21:48;9.63;;;7.40;;
13303;SDS011;6720;51.958;4.540;2023-06-14T05:24:14;8.50;;;6.10;;
13303;SDS011;6720;51.958;4.540;2023-06-14T05:26:40;11.80;;;5.10;;
13303;SDS011;6720;51.958;4.540;2023-06-14T05:29:05;6.10;;;5.50;;
13303;SDS011;6720;51.958;4.540;2023-06-14T05:31:31;8.33;;;5.87;;
13303;SDS011;6720;51.958;4.540;2023-06-14T05:33:56;7.03;;;5.10;;
13303;SDS011;6720;51.958;4.540;2023-06-14T05:36:21;6.67;;;4.70;;
13303;SDS011;6720;51.958;4.540;2023-06-14T05:38:47;8.33;;;4.90;;
13303;SDS011;6720;51.958;4.540;2023-06-14T05:41:12;6.90;;;4.93;;
13303;SDS011;6720;51.958;4.540;2023-06-14T05:43:38;10.13;;;4.73;;
13303;SDS011;6720;51.958;4.540;2023-06-14T05:46:03;7.63;;;5.00;;
13303;SDS011;6720;51.958;4.540;2023-06-14T05:48:30;7.80;;;4.63;;
13303;SDS011;6720;51.958;4.540;2023-06-14T05:50:55;8.63;;;4.97;;
13303;SDS011;6720;51.958;4.540;2023-06-14T05:53:20;8.00;;;4.80;;
13303;SDS011;6720;51.958;4.540;2023-06-14T05:55:46;8.03;;;4.90;;
13303;SDS011;6720;51.958;4.540;2023-06-14T05:58:11;7.80;;;5.03;;
13303;SDS011;6720;51.958;4.540;2023-06-14T06:00:38;8.27;;;4.80;;
13303;SDS011;6720;51.958;4.540;2023-06-14T06:03:03;7.17;;;4.50;;
13303;SDS011;6720;51.958;4.540;2023-06-14T06:05:30;7.73;;;4.80;;
13303;SDS011;6720;51.958;4.540;2023-06-14T06:07:55;7.30;;;4.57;;
13303;SDS011;6720;51.958;4.540;2023-06-14T06:10:20;5.03;;;4.53;;
13303;SDS011;6720;51.958;4.540;2023-06-14T06:12:46;7.00;;;4.20;;
13303;SDS011;6720;51.958;4.540;2023-06-14T06:15:12;8.60;;;4.80;;
13303;SDS011;6720;51.958;4.540;2023-06-14T06:17:38;5.93;;;4.50;;
13303;SDS011;6720;51.958;4.540;2023-06-14T06:20:03;8.03;;;4.27;;
13303;SDS011;6720;51.958;4.540;2023-06-14T06:22:30;6.77;;;4.30;;
13303;SDS011;6720;51.958;4.540;2023-06-14T06:24:55;5.30;;;4.40;;
13303;SDS011;6720;51.958;4.540;2023-06-14T06:27:21;5.90;;;4.37;;
13303;SDS011;6720;51.958;4.540;2023-06-14T06:29:46;6.50;;;4.33;;
13303;SDS011;6720;51.958;4.540;2023-06-14T06:32:13;10.13;;;4.70;;
13303;SDS011;6720;51.958;4.540;2023-06-14T06:34:38;8.97;;;4.40;;
13303;SDS011;6720;51.958;4.540;2023-06-14T06:37:04;7.03;;;4.40;;
13303;SDS011;6720;51.958;4.540;2023-06-14T06:39:29;6.83;;;4.23;;
13303;SDS011;6720;51.958;4.540;2023-06-14T06:41:54;7.57;;;5.10;;
13303;SDS011;6720;51.958;4.540;2023-06-14T06:44:19;5.90;;;4.27;;
13303;SDS011;6720;51.958;4.540;2023-06-14T06:46:45;5.47;;;4.60;;
13303;SDS011;6720;51.958;4.540;2023-06-14T06:49:10;5.53;;;4.63;;
13303;SDS011;6720;51.958;4.540;2023-06-14T06:51:37;6.07;;;4.77;;
13303;SDS011;6720;51.958;4.540;2023-06-14T06:54:02;6.73;;;4.90;;
13303;SDS011;6720;51.958;4.540;2023-06-14T06:56:28;5.83;;;4.70;;
13303;SDS011;6720;51.958;4.540;2023-06-14T06:58:53;5.73;;;4.77;;
13303;SDS011;6720;51.958;4.540;2023-06-14T07:01:18;8.77;;;5.20;;
13303;SDS011;6720;51.958;4.540;2023-06-14T07:03:44;5.77;;;4.37;;
13303;SDS011;6720;51.958;4.540;2023-06-14T07:06:10;6.53;;;4.90;;
13303;SDS011;6720;51.958;4.540;2023-06-14T07:08:35;8.33;;;5.20;;
13303;SDS011;6720;51.958;4.540;2023-06-14T07:11:01;6.40;;;4.47;;
13303;SDS011;6720;51.958;4.540;2023-06-14T07:13:27;8.63;;;5.13;;
13303;SDS011;6720;51.958;4.540;2023-06-14T07:15:54;5.80;;;4.83;;
13303;SDS011;6720;51.958;4.540;2023-06-14T07:18:20;6.37;;;5.07;;
13303;SDS011;6720;51.958;4.540;2023-06-14T07:20:45;11.67;;;5.27;;
13303;SDS011;6720;51.958;4.540;2023-06-14T07:23:12;5.97;;;5.10;;
13303;SDS011;6720;51.958;4.540;2023-06-14T07:25:37;6.67;;;4.70;;
13303;SDS011;6720;51.958;4.540;2023-06-14T07:28:02;8.60;;;5.47;;
13303;SDS011;6720;51.958;4.540;2023-06-14T07:30:28;8.13;;;5.13;;
13303;SDS011;6720;51.958;4.540;2023-06-14T07:32:55;7.63;;;5.37;;
13303;SDS011;6720;51.958;4.540;2023-06-14T07:35:20;5.47;;;4.47;;
13303;SDS011;6720;51.958;4.540;2023-06-14T07:37:45;9.90;;;5.00;;
13303;SDS011;6720;51.958;4.540;2023-06-14T07:40:12;5.10;;;4.60;;
13303;SDS011;6720;51.958;4.540;2023-06-14T07:42:37;6.10;;;5.00;;
13303;SDS011;6720;51.958;4.540;2023-06-14T07:45:03;5.63;;;5.03;;
13303;SDS011;6720;51.958;4.540;2023-06-14T07:47:28;6.23;;;4.60;;
13303;SDS011;6720;51.958;4.540;2023-06-14T07:49:54;7.07;;;5.23;;
13303;SDS011;6720;51.958;4.540;2023-06-14T07:52:19;6.10;;;4.60;;
13303;SDS011;6720;51.958;4.540;2023-06-14T07:54:45;6.50;;;5.13;;
13303;SDS011;6720;51.958;4.540;2023-06-14T07:57:10;7.00;;;4.63;;
13303;SDS011;6720;51.958;4.540;2023-06-14T07:59:35;11.07;;;5.23;;
13303;SDS011;6720;51.958;4.540;2023-06-14T08:02:01;7.40;;;5.07;;
13303;SDS011;6720;51.958;4.540;2023-06-14T08:04:26;5.47;;;4.97;;
13303;SDS011;6720;51.958;4.540;2023-06-14T08:06:51;7.50;;;5.10;;
13303;SDS011;6720;51.958;4.540;2023-06-14T08:09:16;6.50;;;5.17;;
13303;SDS011;6720;51.958;4.540;2023-06-14T08:11:42;7.67;;;5.77;;
13303;SDS011;6720;51.958;4.540;2023-06-14T08:14:07;7.40;;;6.00;;
13303;SDS011;6720;51.958;4.540;2023-06-14T08:16:33;8.57;;;5.20;;
13303;SDS011;6720;51.958;4.540;2023-06-14T08:18:58;5.60;;;4.40;;
13303;SDS011;6720;51.958;4.540;2023-06-14T08:21:23;8.17;;;5.30;;
13303;SDS011;6720;51.958;4.540;2023-06-14T08:23:48;5.50;;;4.90;;
13303;SDS011;6720;51.958;4.540;2023-06-14T08:26:14;5.70;;;4.80;;
13303;SDS011;6720;51.958;4.540;2023-06-14T08:28:39;7.63;;;4.60;;
13303;SDS011;6720;51.958;4.540;2023-06-14T08:31:04;6.53;;;4.90;;
13303;SDS011;6720;51.958;4.540;2023-06-14T08:33:31;7.53;;;4.77;;
13303;SDS011;6720;51.958;4.540;2023-06-14T08:35:58;6.33;;;5.23;;
13303;SDS011;6720;51.958;4.540;2023-06-14T08:38:23;6.47;;;4.97;;
13303;SDS011;6720;51.958;4.540;2023-06-14T08:40:50;5.27;;;4.77;;
13303;SDS011;6720;51.958;4.540;2023-06-14T08:43:16;8.67;;;4.30;;
13303;SDS011;6720;51.958;4.540;2023-06-14T08:45:41;6.40;;;4.60;;
13303;SDS011;6720;51.958;4.540;2023-06-14T08:48:07;7.90;;;4.53;;
13303;SDS011;6720;51.958;4.540;2023-06-14T08:50:32;6.13;;;4.37;;
13303;SDS011;6720;51.958;4.540;2023-06-14T08:52:59;7.30;;;4.73;;
13303;SDS011;6720;51.958;4.540;2023-06-14T08:55:28;6.87;;;4.63;;
13303;SDS011;6720;51.958;4.540;2023-06-14T08:57:55;5.67;;;4.90;;
13303;SDS011;6720;51.958;4.540;2023-06-14T09:00:22;5.87;;;4.87;;
13303;SDS011;6720;51.958;4.540;2023-06-14T09:02:49;9.37;;;5.07;;
13303;SDS011;6720;51.958;4.540;2023-06-14T09:05:15;7.43;;;4.50;;
13303;SDS011;6720;51.958;4.540;2023-06-14T09:07:43;6.70;;;4.53;;
13303;SDS011;6720;51.958;4.540;2023-06-14T09:10:10;8.70;;;4.50;;
13303;SDS011;6720;51.958;4.540;2023-06-14T09:12:35;6.50;;;3.97;;
13303;SDS011;6720;51.958;4.540;2023-06-14T09:15:01;5.83;;;3.77;;
13303;SDS011;6720;51.958;4.540;2023-06-14T09:17:31;5.17;;;4.20;;
13303;SDS011;6720;51.958;4.540;2023-06-14T09:19:57;7.10;;;4.20;;
13303;SDS011;6720;51.958;4.540;2023-06-14T09:22:23;4.10;;;3.70;;
13303;SDS011;6720;51.958;4.540;2023-06-14T09:24:48;6.53;;;3.83;;
13303;SDS011;6720;51.958;4.540;2023-06-14T09:27:16;6.03;;;4.13;;
13303;SDS011;6720;51.958;4.540;2023-06-14T09:29:42;4.30;;;3.90;;
13303;SDS011;6720;51.958;4.540;2023-06-14T09:32:07;5.20;;;3.50;;
13303;SDS011;6720;51.958;4.540;2023-06-14T09:34:32;4.60;;;4.03;;
13303;SDS011;6720;51.958;4.540;2023-06-14T09:36:58;6.90;;;3.50;;
13303;SDS011;6720;51.958;4.540;2023-06-14T09:39:23;6.27;;;4.10;;
13303;SDS011;6720;51.958;4.540;2023-06-14T09:41:50;6.53;;;3.93;;
13303;SDS011;6720;51.958;4.540;2023-06-14T09:44:15;7.40;;;3.60;;
13303;SDS011;6720;51.958;4.540;2023-06-14T09:46:43;10.97;;;4.60;;
13303;SDS011;6720;51.958;4.540;2023-06-14T09:49:09;8.23;;;3.80;;
13303;SDS011;6720;51.958;4.540;2023-06-14T09:51:34;6.87;;;4.20;;
13303;SDS011;6720;51.958;4.540;2023-06-14T09:54:03;4.70;;;3.67;;
13303;SDS011;6720;51.958;4.540;2023-06-14T09:56:33;6.37;;;3.70;;
13303;SDS011;6720;51.958;4.540;2023-06-14T09:58:59;4.93;;;3.47;;
13303;SDS011;6720;51.958;4.540;2023-06-14T10:01:25;5.63;;;3.33;;
13303;SDS011;6720;51.958;4.540;2023-06-14T10:03:53;6.50;;;3.87;;
13303;SDS011;6720;51.958;4.540;2023-06-14T10:06:20;4.43;;;3.40;;
13303;SDS011;6720;51.958;4.540;2023-06-14T10:08:49;4.93;;;2.90;;
13303;SDS011;6720;51.958;4.540;2023-06-14T10:11:14;3.80;;;3.40;;
13303;SDS011;6720;51.958;4.540;2023-06-14T10:13:40;4.97;;;3.50;;
13303;SDS011;6720;51.958;4.540;2023-06-14T10:18:33;3.40;;;3.10;;
13303;SDS011;6720;51.958;4.540;2023-06-14T10:23:29;6.20;;;3.10;;
13303;SDS011;6720;51.958;4.540;2023-06-14T10:25:58;5.10;;;3.00;;
13303;SDS011;6720;51.958;4.540;2023-06-14T10:28:25;5.57;;;3.10;;
13303;SDS011;6720;51.958;4.540;2023-06-14T10:31:07;4.77;;;3.20;;
13303;SDS011;6720;51.958;4.540;2023-06-14T10:33:34;3.63;;;3.20;;
13303;SDS011;6720;51.958;4.540;2023-06-14T10:38:43;6.03;;;2.73;;
13303;SDS011;6720;51.958;4.540;2023-06-14T10:41:09;4.20;;;2.93;;
13303;SDS011;6720;51.958;4.540;2023-06-14T10:43:34;3.07;;;2.60;;
13303;SDS011;6720;51.958;4.540;2023-06-14T10:46:16;3.73;;;3.07;;
13303;SDS011;6720;51.958;4.540;2023-06-14T10:48:42;4.37;;;2.73;;
13303;SDS011;6720;51.958;4.540;2023-06-14T10:51:19;4.73;;;3.20;;
13303;SDS011;6720;51.958;4.540;2023-06-14T10:53:48;2.87;;;2.60;;
13303;SDS011;6720;51.958;4.540;2023-06-14T10:58:51;3.20;;;2.90;;
13303;SDS011;6720;51.958;4.540;2023-06-14T11:01:18;3.30;;;3.00;;
13303;SDS011;6720;51.958;4.540;2023-06-14T11:03:50;3.90;;;2.90;;
13303;SDS011;6720;51.958;4.540;2023-06-14T11:06:22;3.13;;;2.90;;
13303;SDS011;6720;51.958;4.540;2023-06-14T11:11:16;2.90;;;2.60;;
13303;SDS011;6720;51.958;4.540;2023-06-14T11:13:44;3.70;;;2.93;;
13303;SDS011;6720;51.958;4.540;2023-06-14T11:16:10;2.80;;;2.53;;
13303;SDS011;6720;51.958;4.540;2023-06-14T11:18:36;9.13;;;3.60;;
13303;SDS011;6720;51.958;4.540;2023-06-14T11:21:01;3.80;;;2.87;;
13303;SDS011;6720;51.958;4.540;2023-06-14T11:23:27;5.23;;;2.50;;
13303;SDS011;6720;51.958;4.540;2023-06-14T11:25:53;3.33;;;2.70;;
13303;SDS011;6720;51.958;4.540;2023-06-14T11:28:18;2.70;;;2.50;;
13303;SDS011;6720;51.958;4.540;2023-06-14T11:30:47;45.80;;;6.33;;
13303;SDS011;6720;51.958;4.540;2023-06-14T11:33:16;8.20;;;3.40;;
13303;SDS011;6720;51.958;4.540;2023-06-14T11:35:42;5.67;;;2.73;;
13303;SDS011;6720;51.958;4.540;2023-06-14T11:38:07;3.00;;;2.70;;
13303;SDS011;6720;51.958;4.540;2023-06-14T11:40:34;3.27;;;2.53;;
13303;SDS011;6720;51.958;4.540;2023-06-14T11:43:02;2.90;;;2.50;;
13303;SDS011;6720;51.958;4.540;2023-06-14T11:45:28;2.60;;;2.40;;
13303;SDS011;6720;51.958;4.540;2023-06-14T11:47:54;4.63;;;2.90;;
13303;SDS011;6720;51.958;4.540;2023-06-14T11:50:20;12.40;;;3.10;;
13303;SDS011;6720;51.958;4.540;2023-06-14T11:52:51;3.10;;;2.60;;
13303;SDS011;6720;51.958;4.540;2023-06-14T11:55:16;5.33;;;3.03;;
13303;SDS011;6720;51.958;4.540;2023-06-14T11:57:42;2.93;;;2.30;;
13303;SDS011;6720;51.958;4.540;2023-06-14T12:00:08;3.13;;;2.83;;
13303;SDS011;6720;51.958;4.540;2023-06-14T12:02:38;4.33;;;2.60;;
13303;SDS011;6720;51.958;4.540;2023-06-14T12:05:04;3.50;;;2.50;;
13303;SDS011;6720;51.958;4.540;2023-06-14T12:07:35;4.93;;;2.80;;
13303;SDS011;6720;51.958;4.540;2023-06-14T12:12:27;3.60;;;2.27;;
13303;SDS011;6720;51.958;4.540;2023-06-14T12:14:53;3.00;;;2.70;;
13303;SDS011;6720;51.958;4.540;2023-06-14T12:17:18;4.37;;;2.53;;
13303;SDS011;6720;51.958;4.540;2023-06-14T12:19:44;4.43;;;2.60;;
13303;SDS011;6720;51.958;4.540;2023-06-14T12:22:10;2.93;;;2.40;;
13303;SDS011;6720;51.958;4.540;2023-06-14T12:24:35;4.50;;;2.60;;
13303;SDS011;6720;51.958;4.540;2023-06-14T12:27:00;4.27;;;2.60;;
13303;SDS011;6720;51.958;4.540;2023-06-14T12:29:28;3.73;;;2.90;;
13303;SDS011;6720;51.958;4.540;2023-06-14T12:31:53;2.93;;;2.67;;
13303;SDS011;6720;51.958;4.540;2023-06-14T12:34:21;3.17;;;2.73;;
13303;SDS011;6720;51.958;4.540;2023-06-14T12:36:46;4.20;;;2.83;;
13303;SDS011;6720;51.958;4.540;2023-06-14T12:39:12;3.23;;;2.43;;
13303;SDS011;6720;51.958;4.540;2023-06-14T12:41:37;3.13;;;2.77;;
13303;SDS011;6720;51.958;4.540;2023-06-14T12:44:02;3.37;;;2.70;;
13303;SDS011;6720;51.958;4.540;2023-06-14T12:46:30;5.40;;;3.00;;
13303;SDS011;6720;51.958;4.540;2023-06-14T12:48:56;3.73;;;2.63;;
13303;SDS011;6720;51.958;4.540;2023-06-14T12:51:21;3.43;;;2.60;;
13303;SDS011;6720;51.958;4.540;2023-06-14T12:53:47;4.10;;;2.60;;
13303;SDS011;6720;51.958;4.540;2023-06-14T12:56:13;3.27;;;2.70;;
13303;SDS011;6720;51.958;4.540;2023-06-14T12:58:39;2.83;;;2.53;;
13303;SDS011;6720;51.958;4.540;2023-06-14T13:01:04;3.63;;;2.57;;
13303;SDS011;6720;51.958;4.540;2023-06-14T13:03:29;5.17;;;2.80;;
13303;SDS011;6720;51.958;4.540;2023-06-14T13:05:55;3.47;;;2.57;;
13303;SDS011;6720;51.958;4.540;2023-06-14T13:08:21;4.07;;;3.20;;
13303;SDS011;6720;51.958;4.540;2023-06-14T13:10:47;2.80;;;2.50;;
13303;SDS011;6720;51.958;4.540;2023-06-14T13:13:12;3.17;;;2.50;;
13303;SDS011;6720;51.958;4.540;2023-06-14T13:15:38;3.47;;;2.40;;
13303;SDS011;6720;51.958;4.540;2023-06-14T13:18:04;3.90;;;2.57;;
13303;SDS011;6720;51.958;4.540;2023-06-14T13:20:29;3.20;;;2.70;;
13303;SDS011;6720;51.958;4.540;2023-06-14T13:22:54;3.00;;;2.63;;
13303;SDS011;6720;51.958;4.540;2023-06-14T13:25:20;3.03;;;2.77;;
13303;SDS011;6720;51.958;4.540;2023-06-14T13:27:46;4.30;;;2.63;;
13303;SDS011;6720;51.958;4.540;2023-06-14T13:30:11;3.40;;;2.40;;
13303;SDS011;6720;51.958;4.540;2023-06-14T13:32:37;2.70;;;2.50;;
13303;SDS011;6720;51.958;4.540;2023-06-14T13:35:02;5.53;;;2.53;;
13303;SDS011;6720;51.958;4.540;2023-06-14T13:37:29;3.20;;;2.70;;
13303;SDS011;6720;51.958;4.540;2023-06-14T13:39:54;4.17;;;2.70;;
13303;SDS011;6720;51.958;4.540;2023-06-14T13:42:20;3.50;;;2.60;;
13303;SDS011;6720;51.958;4.540;2023-06-14T13:44:46;2.70;;;2.40;;
13303;SDS011;6720;51.958;4.540;2023-06-14T13:47:12;4.33;;;2.73;;
13303;SDS011;6720;51.958;4.540;2023-06-14T13:49:37;3.37;;;2.60;;
13303;SDS011;6720;51.958;4.540;2023-06-14T13:52:02;4.50;;;2.50;;
13303;SDS011;6720;51.958;4.540;2023-06-14T13:54:28;3.53;;;2.60;;
13303;SDS011;6720;51.958;4.540;2023-06-14T13:56:53;3.90;;;2.57;;
13303;SDS011;6720;51.958;4.540;2023-06-14T13:59:19;3.70;;;2.67;;
13303;SDS011;6720;51.958;4.540;2023-06-14T14:01:44;3.63;;;2.77;;
13303;SDS011;6720;51.958;4.540;2023-06-14T14:04:09;2.80;;;2.43;;
13303;SDS011;6720;51.958;4.540;2023-06-14T14:06:34;5.23;;;2.50;;
13303;SDS011;6720;51.958;4.540;2023-06-14T14:09:00;2.50;;;2.30;;
13303;SDS011;6720;51.958;4.540;2023-06-14T14:11:25;3.30;;;2.73;;
13303;SDS011;6720;51.958;4.540;2023-06-14T14:13:50;3.13;;;2.73;;
13303;SDS011;6720;51.958;4.540;2023-06-14T14:16:16;3.93;;;2.80;;
13303;SDS011;6720;51.958;4.540;2023-06-14T14:18:41;2.60;;;2.40;;
13303;SDS011;6720;51.958;4.540;2023-06-14T14:21:08;3.77;;;2.97;;
13303;SDS011;6720;51.958;4.540;2023-06-14T14:23:34;3.53;;;2.80;;
13303;SDS011;6720;51.958;4.540;2023-06-14T14:26:00;3.83;;;2.87;;
13303;SDS011;6720;51.958;4.540;2023-06-14T14:28:28;4.10;;;2.70;;
13303;SDS011;6720;51.958;4.540;2023-06-14T14:30:53;4.70;;;2.87;;
13303;SDS011;6720;51.958;4.540;2023-06-14T14:33:19;4.93;;;2.73;;
13303;SDS011;6720;51.958;4.540;2023-06-14T14:35:44;3.97;;;2.73;;
13303;SDS011;6720;51.958;4.540;2023-06-14T14:38:15;4.37;;;2.73;;
13303;SDS011;6720;51.958;4.540;2023-06-14T14:40:41;2.80;;;2.53;;
13303;SDS011;6720;51.958;4.540;2023-06-14T14:43:06;3.50;;;2.60;;
13303;SDS011;6720;51.958;4.540;2023-06-14T14:45:32;5.97;;;2.47;;
13303;SDS011;6720;51.958;4.540;2023-06-14T14:47:57;3.00;;;2.70;;
13303;SDS011;6720;51.958;4.540;2023-06-14T14:50:22;4.40;;;2.90;;
13303;SDS011;6720;51.958;4.540;2023-06-14T14:52:48;3.40;;;2.63;;
13303;SDS011;6720;51.958;4.540;2023-06-14T14:55:13;4.80;;;2.67;;
13303;SDS011;6720;51.958;4.540;2023-06-14T14:57:38;3.30;;;2.67;;
13303;SDS011;6720;51.958;4.540;2023-06-14T15:00:04;2.57;;;2.37;;
13303;SDS011;6720;51.958;4.540;2023-06-14T15:02:30;2.73;;;2.53;;
13303;SDS011;6720;51.958;4.540;2023-06-14T15:04:56;4.23;;;2.70;;
13303;SDS011;6720;51.958;4.540;2023-06-14T15:07:25;4.00;;;2.50;;
13303;SDS011;6720;51.958;4.540;2023-06-14T15:09:50;3.70;;;2.43;;
13303;SDS011;6720;51.958;4.540;2023-06-14T15:12:16;4.20;;;2.60;;
13303;SDS011;6720;51.958;4.540;2023-06-14T15:14:41;3.30;;;2.27;;
13303;SDS011;6720;51.958;4.540;2023-06-14T15:17:06;3.07;;;2.80;;
13303;SDS011;6720;51.958;4.540;2023-06-14T15:19:32;3.30;;;2.40;;